Time;durP1;ratioP1;P1;durP2;ratioP2;P2;SDS_P1;SDS_P2;PMS_P1;PMS_P2;Temp;Humidity;BMP_temperature;BMP_pressure;BME280_temperature;BME280_humidity;BME280_pressure;Samples;Min_cycle;Max_cycle;Signal;HPM_P1;HPM_P2
2023/01/26 00:01:28;;;;;;;7.32;4.93;;;20.70;40.50;;;;;;5056140;28;20049;-61
2023/01/26 00:03:56;;;;;;;5.28;4.20;;;20.70;40.50;;;;;;5055473;28;20057;-62
2023/01/26 00:06:24;;;;;;;5.13;4.15;;;20.70;40.50;;;;;;5056034;28;20048;-62
2023/01/26 00:08:53;;;;;;;5.35;4.25;;;20.60;40.40;;;;;;5055576;28;20049;-62
2023/01/26 00:11:29;;;;;;;5.25;4.18;;;20.70;40.50;;;;;;5055177;28;20056;-61
2023/01/26 00:13:58;;;;;;;5.38;4.10;;;20.70;40.50;;;;;;5055697;28;20131;-62
2023/01/26 00:16:26;;;;;;;5.60;4.10;;;20.70;40.40;;;;;;5055814;28;20053;-61
2023/01/26 00:18:54;;;;;;;6.28;4.63;;;20.70;40.40;;;;;;5055611;28;20130;-62
2023/01/26 00:21:23;;;;;;;4.90;3.85;;;20.70;40.40;;;;;;5055627;28;20049;-62
2023/01/26 00:23:51;;;;;;;4.68;3.90;;;20.70;40.30;;;;;;5055691;28;20041;-61
2023/01/26 00:26:23;;;;;;;5.47;4.10;;;20.70;40.30;;;;;;5055465;28;20049;-62
2023/01/26 00:28:51;;;;;;;5.05;4.07;;;20.70;40.30;;;;;;5055681;28;20053;-62
2023/01/26 00:31:21;;;;;;;5.15;3.97;;;20.70;40.30;;;;;;5055497;28;20059;-62
2023/01/26 00:33:49;;;;;;;;;;;20.70;40.90;;;;;;5054999;28;20049;-61
2023/01/26 00:36:16;;;;;;;5.68;4.07;;;20.70;40.30;;;;;;5055552;28;19925;-62
2023/01/26 00:38:43;;;;;;;5.80;3.97;;;20.60;40.30;;;;;;5055282;28;20049;-61
2023/01/26 00:43:58;;;;;;;6.25;4.18;;;20.60;40.30;;;;;;5055298;28;20456;-61
2023/01/26 00:46:25;;;;;;;5.95;4.05;;;20.60;40.30;;;;;;5054925;28;20049;-62
2023/01/26 00:48:52;;;;;;;5.10;4.15;;;20.60;40.30;;;;;;5055556;28;20083;-62
2023/01/26 00:51:19;;;;;;;5.28;4.13;;;20.60;40.30;;;;;;5054936;28;20059;-61
2023/01/26 00:53:46;;;;;;;6.70;4.55;;;20.60;40.20;;;;;;5055007;28;20056;-62
2023/01/26 00:56:13;;;;;;;5.78;3.80;;;20.60;40.20;;;;;;5054855;28;20052;-62
2023/01/26 00:58:41;;;;;;;4.70;4.15;;;20.60;40.20;;;;;;5054869;28;20056;-62
2023/01/26 01:01:08;;;;;;;5.43;4.00;;;20.60;40.20;;;;;;5054261;28;20484;-62
2023/01/26 01:03:36;;;;;;;5.82;4.18;;;20.60;40.20;;;;;;5054637;28;20053;-62
2023/01/26 01:06:03;;;;;;;5.68;4.18;;;20.60;40.10;;;;;;5054915;28;20127;-62
2023/01/26 01:08:30;;;;;;;6.22;4.38;;;20.60;40.10;;;;;;5054730;28;20049;-62
2023/01/26 01:11:05;;;;;;;5.80;4.30;;;20.60;40.20;;;;;;5054931;28;20053;-61
2023/01/26 01:13:32;;;;;;;5.75;4.43;;;20.60;40.20;;;;;;5054619;28;20408;-62
2023/01/26 01:15:59;;;;;;;8.07;4.15;;;20.60;40.20;;;;;;5055092;28;20052;-62
2023/01/26 01:18:26;;;;;;;5.95;3.88;;;20.60;40.20;;;;;;5053903;28;20084;-62
2023/01/26 01:20:53;;;;;;;7.50;4.10;;;20.60;40.20;;;;;;5054776;28;20131;-61
2023/01/26 01:23:20;;;;;;;5.72;4.32;;;20.60;40.20;;;;;;5054108;28;20529;-62
2023/01/26 01:25:59;;;;;;;5.80;4.18;;;20.60;40.20;;;;;;5054370;28;20060;-62
2023/01/26 01:28:26;;;;;;;6.28;4.88;;;20.50;40.10;;;;;;5054076;28;20484;-62
2023/01/26 01:30:53;;;;;;;5.13;3.92;;;20.50;40.10;;;;;;5053871;28;20049;-61
2023/01/26 01:33:22;;;;;;;7.03;4.43;;;20.60;40.10;;;;;;5053868;28;20110;-62
2023/01/26 01:36:01;;;;;;;6.50;4.13;;;20.60;40.10;;;;;;5054603;28;20071;-62
2023/01/26 01:38:28;;;;;;;4.90;4.10;;;20.60;40.20;;;;;;5053959;28;20041;-62
2023/01/26 01:40:56;;;;;;;6.13;4.03;;;20.50;40.10;;;;;;5054193;28;20049;-61
2023/01/26 01:43:24;;;;;;;5.93;4.53;;;20.50;40.10;;;;;;5054210;28;20068;-62
2023/01/26 01:45:52;;;;;;;5.88;4.13;;;20.50;40.10;;;;;;5053966;28;20056;-61
2023/01/26 01:48:46;;;;;;;4.75;3.67;;;20.50;40.10;;;;;;5054503;28;20055;-61
2023/01/26 01:51:18;;;;;;;5.43;4.53;;;20.50;40.10;;;;;;5053991;28;20143;-61
2023/01/26 01:53:49;;;;;;;5.15;4.28;;;20.50;40.10;;;;;;5054051;28;20053;-62
2023/01/26 01:56:22;;;;;;;6.07;4.28;;;20.50;40.10;;;;;;5053702;28;20056;-62
2023/01/26 01:58:54;;;;;;;4.55;3.75;;;20.50;40.10;;;;;;5053916;28;20053;-62
2023/01/26 02:01:21;;;;;;;6.65;4.47;;;20.50;40.10;;;;;;5053134;28;20049;-62
2023/01/26 02:03:53;;;;;;;7.63;4.45;;;20.50;40.10;;;;;;5053862;28;20045;-62
2023/01/26 02:06:29;;;;;;;5.38;4.25;;;20.50;40.10;;;;;;5053000;28;20048;-61
2023/01/26 02:08:57;;;;;;;5.97;4.20;;;20.50;40.10;;;;;;5054076;28;20053;-61
2023/01/26 02:11:35;;;;;;;5.70;4.20;;;20.50;40.10;;;;;;5053159;28;20409;-62
2023/01/26 02:14:08;;;;;;;6.93;4.88;;;20.50;40.10;;;;;;5053397;28;20056;-61
2023/01/26 02:16:38;;;;;;;5.70;3.78;;;20.50;40.10;;;;;;5053214;28;20378;-62
2023/01/26 02:19:15;;;;;;;6.53;4.60;;;20.50;40.10;;;;;;5053245;28;20141;-62
2023/01/26 02:21:45;;;;;;;6.13;4.35;;;20.50;40.00;;;;;;5052747;28;20396;-62
2023/01/26 02:24:25;;;;;;;6.13;4.05;;;20.50;40.00;;;;;;5053204;28;20060;-62
2023/01/26 02:26:53;;;;;;;8.05;4.65;;;20.50;40.50;;;;;;5053237;28;20049;-61
2023/01/26 02:29:21;;;;;;;5.55;4.00;;;20.50;40.00;;;;;;5052710;28;20044;-61
2023/01/26 02:31:49;;;;;;;6.22;4.47;;;20.50;40.00;;;;;;5053057;28;20127;-62
2023/01/26 02:34:16;;;;;;;6.03;4.60;;;20.50;39.90;;;;;;5053452;28;20087;-61
2023/01/26 02:36:43;;;;;;;6.68;4.75;;;20.50;39.90;;;;;;5052702;28;20045;-62
2023/01/26 02:39:50;;;;;;;6.50;4.43;;;20.50;39.90;;;;;;5053128;28;20496;-62
2023/01/26 02:45:05;;;;;;;7.47;5.00;;;20.50;39.90;;;;;;5053135;28;20090;-61
2023/01/26 02:47:32;;;;;;;6.47;4.22;;;20.50;39.90;;;;;;5052965;28;20048;-62
2023/01/26 02:49:59;;;;;;;6.78;4.72;;;20.50;39.90;;;;;;5052751;28;20128;-61
2023/01/26 02:52:32;;;;;;;7.15;5.45;;;20.50;39.90;;;;;;5052919;28;20048;-61
2023/01/26 02:57:46;;;;;;;6.45;4.63;;;20.50;39.90;;;;;;5052243;28;20508;-62
2023/01/26 03:00:17;;;;;;;6.32;4.68;;;20.50;39.90;;;;;;5052906;28;20041;-62
2023/01/26 03:02:45;;;;;;;7.20;5.03;;;20.50;39.90;;;;;;5052851;28;20123;-62
2023/01/26 03:05:13;;;;;;;5.50;4.63;;;20.50;39.90;;;;;;5052929;28;20382;-62
2023/01/26 03:07:40;;;;;;;6.68;4.80;;;20.50;39.90;;;;;;5052096;28;20495;-62
2023/01/26 03:10:08;;;;;;;6.70;4.70;;;20.50;39.90;;;;;;5052732;28;20041;-62
2023/01/26 03:12:35;;;;;;;5.90;4.10;;;20.40;40.40;;;;;;5052555;28;20099;-62
2023/01/26 03:27:25;;;;;;;7.43;4.90;;;20.40;39.80;;;;;;5052192;28;20049;-62
2023/01/26 03:28:59;;;;;;;7.30;4.95;;;20.40;39.80;;;;;;5056402;28;20234;-61
2023/01/26 03:31:26;;;;;;;7.07;4.90;;;20.40;39.80;;;;;;5055982;28;20055;-62
2023/01/26 03:33:53;;;;;;;6.40;4.65;;;20.40;39.80;;;;;;5056075;28;20071;-62
2023/01/26 03:36:20;;;;;;;7.10;4.78;;;20.40;39.80;;;;;;5051954;28;20044;-61
2023/01/26 03:38:47;;;;;;;7.00;4.57;;;20.40;39.80;;;;;;5052325;28;20132;-62
2023/01/26 03:57:56;;;;;;;6.63;4.82;;;20.40;39.70;;;;;;5054325;28;20505;-61
2023/01/26 04:00:23;;;;;;;6.22;4.72;;;20.40;39.70;;;;;;5053279;28;20091;-62
2023/01/26 04:08:43;;;;;;;6.00;4.45;;;20.40;39.70;;;;;;5056197;28;20045;-62
2023/01/26 04:11:10;;;;;;;8.00;5.60;;;20.40;39.70;;;;;;5055321;28;20055;-62
2023/01/26 04:21:59;;;;;;;5.93;4.40;;;20.40;39.70;;;;;;5055619;28;20041;-62
2023/01/26 04:24:26;;;;;;;6.10;4.07;;;20.40;39.70;;;;;;5054399;28;20519;-61
2023/01/26 04:26:54;;;;;;;5.78;4.55;;;20.40;39.70;;;;;;5055396;28;20106;-62
2023/01/26 04:29:21;;;;;;;7.53;4.55;;;20.40;39.70;;;;;;5054279;28;20071;-61
2023/01/26 04:31:49;;;;;;;5.88;4.13;;;20.40;39.70;;;;;;5055662;28;20052;-62
2023/01/26 04:34:17;;;;;;;5.63;4.53;;;20.40;39.70;;;;;;5054910;28;20060;-61
2023/01/26 04:36:44;;;;;;;7.32;5.10;;;20.40;39.70;;;;;;5051305;28;20083;-61
2023/01/26 04:39:11;;;;;;;6.43;4.85;;;20.40;40.20;;;;;;5051458;28;20049;-62
2023/01/26 04:41:38;;;;;;;6.00;5.03;;;20.40;39.60;;;;;;5054570;28;20081;-61
2023/01/26 04:44:08;;;;;;;5.95;4.32;;;20.40;39.70;;;;;;5045961;28;20056;-62
2023/01/26 04:46:35;;;;;;;7.05;5.03;;;20.40;39.60;;;;;;5045007;28;20053;-61
2023/01/26 04:49:02;;;;;;;5.68;4.68;;;20.40;39.60;;;;;;5043910;28;20038;-62
2023/01/26 04:51:29;;;;;;;7.53;4.85;;;20.40;39.60;;;;;;5044168;28;20049;-62
2023/01/26 04:53:57;;;;;;;7.05;4.60;;;20.40;39.60;;;;;;5043624;28;20041;-62
2023/01/26 04:56:28;;;;;;;7.93;5.65;;;20.40;39.60;;;;;;5039560;28;20136;-62
2023/01/26 04:58:58;;;;;;;7.07;4.90;;;20.40;39.60;;;;;;5054590;28;20094;-62
2023/01/26 05:01:26;;;;;;;6.65;4.68;;;20.40;39.60;;;;;;5054413;28;20045;-62
2023/01/26 05:03:53;;;;;;;5.45;4.40;;;20.40;39.60;;;;;;5054207;28;20132;-62
2023/01/26 05:06:20;;;;;;;6.15;4.68;;;20.40;39.60;;;;;;5045719;28;20169;-62
2023/01/26 05:08:47;;;;;;;5.53;4.00;;;20.40;39.60;;;;;;5049519;28;20044;-61
2023/01/26 05:11:15;;;;;;;6.63;4.82;;;20.40;39.60;;;;;;5048206;28;20080;-62
2023/01/26 05:13:42;;;;;;;8.10;5.00;;;20.40;39.60;;;;;;5034579;28;20060;-61
2023/01/26 05:16:12;;;;;;;6.35;4.75;;;20.30;39.50;;;;;;5046392;28;20041;-62
2023/01/26 05:18:41;;;;;;;7.32;4.88;;;20.40;39.60;;;;;;5052083;28;20135;-61
2023/01/26 05:21:09;;;;;;;7.88;4.90;;;20.40;39.50;;;;;;5047251;28;20556;-62
2023/01/26 05:23:36;;;;;;;7.80;5.28;;;20.40;39.50;;;;;;5050160;28;20053;-62
2023/01/26 05:26:04;;;;;;;5.55;4.35;;;20.40;39.50;;;;;;5042383;28;20493;-61
2023/01/26 05:28:31;;;;;;;7.72;4.97;;;20.40;39.50;;;;;;5035537;28;20049;-62
2023/01/26 05:30:58;;;;;;;7.10;4.80;;;20.40;39.50;;;;;;5036189;28;20056;-62
2023/01/26 05:33:25;;;;;;;6.50;4.75;;;20.30;39.50;;;;;;5039877;28;20041;-62
2023/01/26 05:35:52;;;;;;;8.80;6.20;;;20.30;39.50;;;;;;5043688;28;20128;-62
2023/01/26 05:38:20;;;;;;;9.73;6.55;;;20.30;39.30;;;;;;5040286;28;20512;-62
2023/01/26 05:40:47;;;;;;;8.95;6.03;;;20.30;39.10;;;;;;5039828;28;20099;-62
2023/01/26 05:43:14;;;;;;;8.95;5.70;;;20.30;39.10;;;;;;5043020;28;20053;-62
2023/01/26 05:45:41;;;;;;;9.02;6.10;;;20.30;39.00;;;;;;5042510;28;20053;-61
2023/01/26 05:48:08;;;;;;;8.20;5.97;;;20.30;39.00;;;;;;5036920;28;20503;-62
2023/01/26 05:50:36;;;;;;;8.82;5.97;;;20.30;39.00;;;;;;5041089;28;20075;-61
2023/01/26 05:53:03;;;;;;;9.38;5.90;;;20.30;39.10;;;;;;5048392;28;20127;-61
2023/01/26 05:55:30;;;;;;;7.22;5.57;;;20.20;39.00;;;;;;5044508;28;20041;-61
2023/01/26 05:57:58;;;;;;;5.53;4.50;;;20.30;39.10;;;;;;5048492;28;20136;-61
2023/01/26 06:00:25;;;;;;;9.82;6.15;;;20.30;39.10;;;;;;5041558;28;20037;-61
2023/01/26 06:02:52;;;;;;;7.75;5.57;;;20.30;39.10;;;;;;5046940;28;20481;-61
2023/01/26 06:05:19;;;;;;;8.68;5.90;;;20.30;39.10;;;;;;5041967;28;20087;-61
2023/01/26 06:07:46;;;;;;;7.22;5.50;;;20.30;39.00;;;;;;5045022;28;20045;-62
2023/01/26 06:10:15;;;;;;;8.20;5.82;;;20.30;39.10;;;;;;5045312;28;20056;-62
2023/01/26 06:12:42;;;;;;;9.35;6.25;;;20.30;39.00;;;;;;5041887;28;20065;-63
2023/01/26 06:15:11;;;;;;;7.22;5.45;;;20.40;39.00;;;;;;5040096;28;20045;-62
2023/01/26 06:17:38;;;;;;;9.18;5.93;;;20.40;38.90;;;;;;5040084;28;20065;-62
2023/01/26 06:20:07;;;;;;;7.30;5.45;;;20.50;38.90;;;;;;5041207;28;20579;-65
2023/01/26 06:22:34;;;;;;;9.88;6.55;;;20.50;38.80;;;;;;5043437;28;20045;-62
2023/01/26 06:25:02;;;;;;;7.40;5.53;;;20.50;38.80;;;;;;5040862;28;20050;-64
2023/01/26 06:27:30;;;;;;;8.35;5.63;;;20.60;38.80;;;;;;5041880;28;20131;-62
2023/01/26 06:29:57;;;;;;;7.40;5.70;;;20.60;38.70;;;;;;5044677;28;20573;-64
2023/01/26 06:32:24;;;;;;;8.18;6.22;;;20.70;38.70;;;;;;5047741;28;20110;-64
2023/01/26 06:34:52;;;;;;;9.00;5.90;;;20.70;38.70;;;;;;5040060;28;20045;-65
2023/01/26 06:37:19;;;;;;;8.57;6.18;;;20.70;38.60;;;;;;5045054;28;20500;-66
2023/01/26 06:39:46;;;;;;;7.35;6.25;;;20.70;38.60;;;;;;5040159;28;20493;-65
2023/01/26 06:42:14;;;;;;;8.18;6.60;;;20.80;38.50;;;;;;5037979;28;20045;-64
2023/01/26 06:44:41;;;;;;;8.65;6.38;;;20.90;38.50;;;;;;5028169;28;20045;-63
2023/01/26 06:47:11;;;;;;;10.75;6.30;;;20.90;38.40;;;;;;5038285;28;20102;-65
2023/01/26 06:49:38;;;;;;;9.57;6.40;;;20.90;38.70;;;;;;5043695;28;20049;-67
2023/01/26 06:52:34;;;;;;;8.82;5.97;;;21.00;38.80;;;;;;5037324;28;20053;-67
2023/01/26 06:55:02;;;;;;;10.95;6.53;;;21.00;39.00;;;;;;5037484;28;20067;-67
2023/01/26 06:57:30;;;;;;;16.65;7.28;;;21.00;39.20;;;;;;5039777;28;20055;-63
2023/01/26 06:59:57;;;;;;;9.75;6.93;;;21.10;39.20;;;;;;5036054;28;20136;-64
2023/01/26 07:02:24;;;;;;;9.43;6.88;;;21.10;39.30;;;;;;5041014;28;20600;-64
2023/01/26 07:04:52;;;;;;;11.02;6.82;;;21.10;40.00;;;;;;5041429;28;20052;-64
2023/01/26 07:07:19;;;;;;;10.73;6.90;;;21.10;39.60;;;;;;5043020;28;20523;-64
2023/01/26 07:09:46;;;;;;;11.35;7.68;;;21.20;39.70;;;;;;5042651;28;20052;-63
2023/01/26 07:12:14;;;;;;;12.70;7.40;;;21.20;39.70;;;;;;5040586;28;20041;-63
2023/01/26 07:14:41;;;;;;;10.93;7.25;;;21.20;39.80;;;;;;5037713;28;20057;-68
2023/01/26 07:17:08;;;;;;;12.63;7.47;;;21.30;39.80;;;;;;5042762;28;20045;-65
2023/01/26 07:19:36;;;;;;;13.25;8.30;;;21.30;39.70;;;;;;5044353;28;20131;-64
2023/01/26 07:22:04;;;;;;;16.08;8.70;;;21.30;39.60;;;;;;5039697;28;20055;-61
2023/01/26 07:24:31;;;;;;;11.95;8.18;;;21.40;39.60;;;;;;5039571;28;20091;-62
2023/01/26 07:26:58;;;;;;;12.90;9.00;;;21.40;39.60;;;;;;5042874;28;20060;-62
2023/01/26 07:29:26;;;;;;;13.85;9.10;;;21.50;39.70;;;;;;5038672;28;20516;-63
2023/01/26 07:31:53;;;;;;;14.00;8.90;;;21.50;39.80;;;;;;5042417;28;20061;-63
2023/01/26 07:34:21;;;;;;;23.40;8.52;;;21.50;39.80;;;;;;5039975;28;20591;-65
2023/01/26 07:36:51;;;;;;;12.23;8.23;;;21.60;39.70;;;;;;5040025;28;20068;-62
2023/01/26 07:39:18;;;;;;;13.98;9.70;;;21.60;39.60;;;;;;5032950;28;20560;-65
2023/01/26 07:41:45;;;;;;;15.38;9.70;;;21.60;39.50;;;;;;5038757;28;20047;-64
2023/01/26 07:44:13;;;;;;;12.70;8.45;;;21.60;39.30;;;;;;5042497;28;20063;-63
2023/01/26 07:46:41;;;;;;;10.70;7.97;;;21.70;39.30;;;;;;5037977;28;20037;-62
2023/01/26 07:49:11;;;;;;;13.57;8.98;;;21.70;39.20;;;;;;5041776;28;20439;-62
2023/01/26 07:51:38;;;;;;;11.50;8.15;;;21.70;39.10;;;;;;5040675;28;20049;-63
2023/01/26 07:54:06;;;;;;;14.60;9.73;;;21.80;39.20;;;;;;5041787;28;20134;-64
2023/01/26 07:56:35;;;;;;;13.00;8.90;;;21.80;39.20;;;;;;5038354;28;20052;-63
2023/01/26 07:59:02;;;;;;;15.68;8.93;;;21.80;39.10;;;;;;5035963;28;20424;-62
2023/01/26 08:01:30;;;;;;;16.05;8.57;;;21.80;39.00;;;;;;5041468;28;20493;-64
2023/01/26 08:03:57;;;;;;;14.57;9.05;;;21.90;39.00;;;;;;5040541;28;20111;-65
2023/01/26 08:06:24;;;;;;;14.07;9.10;;;21.90;38.90;;;;;;5043313;28;20393;-64
2023/01/26 08:08:52;;;;;;;14.85;9.05;;;21.90;38.90;;;;;;5043655;28;20496;-64
2023/01/26 08:11:22;;;;;;;15.45;8.95;;;21.90;39.00;;;;;;5039975;28;20503;-64
2023/01/26 08:13:50;;;;;;;13.13;8.68;;;22.00;38.90;;;;;;5043440;28;20049;-63
2023/01/26 08:16:17;;;;;;;13.75;8.57;;;22.00;38.70;;;;;;5045764;28;20045;-62
2023/01/26 08:18:46;;;;;;;15.25;9.35;;;22.00;38.60;;;;;;5047847;28;20049;-64
2023/01/26 08:21:15;;;;;;;14.50;8.57;;;22.00;38.40;;;;;;5047300;28;20060;-64
2023/01/26 08:23:42;;;;;;;14.07;9.15;;;22.00;38.60;;;;;;5047366;28;20049;-64
2023/01/26 08:26:12;;;;;;;17.17;8.85;;;22.10;38.60;;;;;;5041633;28;20052;-64
2023/01/26 08:28:39;;;;;;;13.65;8.68;;;22.10;38.60;;;;;;5045241;28;20053;-65
2023/01/26 08:31:10;;;;;;;13.30;8.35;;;22.10;38.60;;;;;;5039493;28;20049;-65
2023/01/26 08:33:39;;;;;;;12.25;8.68;;;22.20;38.60;;;;;;5041203;28;20083;-65
2023/01/26 08:36:10;;;;;;;12.90;8.77;;;22.20;38.70;;;;;;5045837;28;20041;-68
2023/01/26 08:38:37;;;;;;;13.60;9.05;;;22.20;38.80;;;;;;5044443;28;20063;-61
2023/01/26 08:41:05;;;;;;;11.90;8.25;;;22.20;38.80;;;;;;5043884;28;20053;-62
2023/01/26 08:43:33;;;;;;;12.27;8.05;;;22.20;38.90;;;;;;5046147;28;20133;-65
2023/01/26 08:46:00;;;;;;;11.57;8.27;;;22.30;38.80;;;;;;5041612;28;20053;-64
2023/01/26 08:48:29;;;;;;;11.65;8.15;;;22.40;38.80;;;;;;5037765;28;20390;-64
2023/01/26 08:50:59;;;;;;;11.60;8.55;;;22.30;38.80;;;;;;5042283;28;20041;-62
2023/01/26 08:53:30;;;;;;;15.10;8.68;;;22.40;38.70;;;;;;5044122;28;20053;-63
2023/01/26 08:56:00;;;;;;;14.57;8.55;;;22.40;38.60;;;;;;5039966;28;20131;-62
2023/01/26 08:58:28;;;;;;;10.85;7.88;;;22.40;38.30;;;;;;5044069;28;20099;-64
2023/01/26 09:00:55;;;;;;;17.90;9.40;;;22.40;38.10;;;;;;5046625;28;20040;-65
2023/01/26 09:03:23;;;;;;;9.43;7.47;;;22.40;38.10;;;;;;5041693;28;20048;-63
2023/01/26 09:05:50;;;;;;;11.77;8.57;;;22.50;38.30;;;;;;5045042;28;20075;-63
2023/01/26 09:08:17;;;;;;;11.68;7.60;;;22.50;38.30;;;;;;5041432;28;20084;-62
2023/01/26 09:10:44;;;;;;;12.80;8.35;;;22.50;38.20;;;;;;5044008;28;20064;-63
2023/01/26 09:13:11;;;;;;;11.88;8.45;;;22.60;38.30;;;;;;5048352;28;20059;-65
2023/01/26 09:15:39;;;;;;;12.48;8.15;;;22.60;38.20;;;;;;5046494;28;20129;-62
2023/01/26 09:18:06;;;;;;;11.98;7.57;;;22.60;38.20;;;;;;5045420;28;20451;-64
2023/01/26 09:20:34;;;;;;;11.90;7.13;;;22.60;38.10;;;;;;5045985;28;20045;-63
2023/01/26 09:23:01;;;;;;;11.05;7.47;;;22.60;38.00;;;;;;5047693;28;20059;-61
2023/01/26 09:25:28;;;;;;;10.18;7.40;;;22.60;37.90;;;;;;5046388;28;20098;-67
2023/01/26 09:27:55;;;;;;;12.35;7.40;;;22.70;37.90;;;;;;5044940;28;20049;-63
2023/01/26 09:30:26;;;;;;;14.15;7.70;;;22.70;38.30;;;;;;5046979;28;20465;-63
2023/01/26 09:32:58;;;;;;;11.88;7.57;;;22.70;37.60;;;;;;5041498;28;20064;-64
2023/01/26 09:35:27;;;;;;;10.38;7.22;;;22.70;37.40;;;;;;5044772;28;20049;-63
2023/01/26 09:37:54;;;;;;;10.70;7.50;;;22.80;37.50;;;;;;5042810;28;20081;-63
2023/01/26 09:40:56;;;;;;;9.77;7.15;;;22.80;37.50;;;;;;5045838;28;20049;-65
2023/01/26 09:43:46;;;;;;;9.88;7.25;;;22.80;37.40;;;;;;5040744;28;20076;-62
2023/01/26 09:46:25;;;;;;;;;;;22.80;37.40;;;;;;5042879;28;20049;-63
2023/01/26 09:49:17;;;;;;;9.90;7.47;;;22.80;37.40;;;;;;5044549;28;19925;-63
2023/01/26 09:51:57;;;;;;;9.65;7.35;;;22.80;37.30;;;;;;5041111;28;20076;-63
2023/01/26 09:54:37;;;;;;;10.82;7.53;;;22.80;37.30;;;;;;5044490;28;20048;-62
2023/01/26 09:57:14;;;;;;;9.63;7.10;;;22.90;37.30;;;;;;5042198;28;20053;-63
2023/01/26 10:00:08;;;;;;;10.80;7.18;;;22.90;37.20;;;;;;5037459;28;20065;-66
2023/01/26 10:03:09;;;;;;;10.35;7.38;;;22.90;37.20;;;;;;5048165;28;20077;-63
2023/01/26 10:05:52;;;;;;;10.27;6.78;;;23.00;37.20;;;;;;5046335;28;20911;-64
2023/01/26 10:08:22;;;;;;;9.23;6.53;;;23.00;37.10;;;;;;5040754;28;20137;-64
2023/01/26 10:10:54;;;;;;;12.00;7.53;;;23.00;37.00;;;;;;5041454;28;20053;-63
2023/01/26 10:13:22;;;;;;;11.60;6.93;;;23.00;37.00;;;;;;5037124;28;20152;-61
2023/01/26 10:16:01;;;;;;;10.00;7.93;;;23.00;36.90;;;;;;5039445;28;20049;-63
2023/01/26 10:18:52;;;;;;;9.93;7.38;;;23.10;36.90;;;;;;5038330;28;20049;-62
2023/01/26 10:21:27;;;;;;;11.82;7.57;;;23.10;36.90;;;;;;5041292;28;20057;-64
2023/01/26 10:23:57;;;;;;;10.60;7.22;;;23.10;37.00;;;;;;5040398;28;20342;-62
2023/01/26 10:26:30;;;;;;;11.38;7.72;;;23.10;37.00;;;;;;5041500;28;20045;-62
2023/01/26 10:28:58;;;;;;;13.82;7.60;;;23.10;37.10;;;;;;5040239;28;20057;-64
2023/01/26 10:31:31;;;;;;;9.43;6.63;;;23.10;37.10;;;;;;5040424;28;20064;-65
2023/01/26 10:34:05;;;;;;;9.43;7.18;;;23.20;37.00;;;;;;5037610;28;20059;-62
2023/01/26 10:36:32;;;;;;;11.60;7.60;;;23.20;36.90;;;;;;5039659;28;20049;-63
2023/01/26 10:39:05;;;;;;;12.50;7.43;;;23.20;36.80;;;;;;5039384;28;20148;-62
2023/01/26 10:41:33;;;;;;;11.57;7.80;;;23.30;36.70;;;;;;5037794;28;20527;-62
2023/01/26 10:44:22;;;;;;;10.18;7.05;;;23.30;36.70;;;;;;5042053;28;20080;-61
2023/01/26 10:47:03;;;;;;;10.85;7.63;;;23.30;36.70;;;;;;5038623;28;20147;-62
2023/01/26 10:49:30;;;;;;;14.02;8.13;;;23.30;36.60;;;;;;5041499;28;21439;-62
2023/01/26 10:52:16;;;;;;;13.30;8.13;;;23.30;36.50;;;;;;5045328;28;20556;-64
2023/01/26 10:54:45;;;;;;;11.95;8.00;;;23.30;36.50;;;;;;5044129;28;20037;-63
2023/01/26 10:57:31;;;;;;;11.82;7.82;;;23.30;36.40;;;;;;5043489;28;20140;-61
2023/01/26 11:00:20;;;;;;;14.13;8.20;;;23.40;36.30;;;;;;5040283;28;20098;-62
2023/01/26 11:02:54;;;;;;;10.70;6.18;;;23.40;36.10;;;;;;5044330;28;20087;-65
2023/01/26 11:05:24;;;;;;;16.55;8.38;;;23.40;36.00;;;;;;5046240;28;20052;-65
2023/01/26 11:08:01;;;;;;;11.47;8.17;;;23.40;35.90;;;;;;5045110;28;20055;-64
2023/01/26 11:10:37;;;;;;;11.18;7.13;;;23.40;35.80;;;;;;5047212;28;20414;-66
2023/01/26 11:13:19;;;;;;;13.68;7.38;;;23.40;35.90;;;;;;5046670;28;20110;-63
2023/01/26 11:16:19;;;;;;;10.13;6.78;;;23.40;35.80;;;;;;5048906;28;20346;-64
2023/01/26 11:18:57;;;;;;;12.82;8.18;;;23.40;35.70;;;;;;5044345;28;20041;-64
2023/01/26 11:21:43;;;;;;;13.50;7.82;;;23.40;35.60;;;;;;5045027;28;20045;-64
2023/01/26 11:24:33;;;;;;;15.85;9.45;;;23.40;35.60;;;;;;5043592;28;20044;-64
2023/01/26 11:27:19;;;;;;;14.20;8.73;;;23.40;35.40;;;;;;5042500;28;20056;-64
2023/01/26 11:30:22;;;;;;;15.30;8.68;;;23.40;35.60;;;;;;5042183;28;20048;-66
2023/01/26 11:33:15;;;;;;;14.80;8.63;;;23.40;35.70;;;;;;5041689;28;20059;-64
2023/01/26 11:36:02;;;;;;;14.50;8.27;;;23.40;35.70;;;;;;5042492;28;20052;-63
2023/01/26 11:38:43;;;;;;;16.05;8.70;;;23.40;35.70;;;;;;5041388;28;20064;-65
2023/01/26 11:41:28;;;;;;;18.58;9.73;;;23.30;35.70;;;;;;5043700;28;20139;-64
2023/01/26 11:44:21;;;;;;;16.92;9.10;;;23.30;35.70;;;;;;5046241;28;20122;-64
2023/01/26 11:47:28;;;;;;;18.70;10.77;;;23.30;35.70;;;;;;5041592;28;20045;-64
2023/01/26 11:50:35;;;;;;;15.10;8.90;;;23.30;35.70;;;;;;5042174;28;20086;-64
2023/01/26 11:53:43;;;;;;;21.23;9.75;;;23.30;36.00;;;;;;5044559;28;20457;-63
2023/01/26 11:56:29;;;;;;;22.92;10.65;;;23.30;36.00;;;;;;5032456;28;20135;-61
2023/01/26 11:59:11;;;;;;;19.88;10.55;;;23.30;36.20;;;;;;5040806;28;20436;-62
2023/01/26 12:01:45;;;;;;;16.25;10.23;;;23.30;36.20;;;;;;5041084;28;20056;-61
2023/01/26 12:04:20;;;;;;;19.95;10.93;;;23.30;35.90;;;;;;5041038;28;20812;-63
2023/01/26 12:07:04;;;;;;;18.77;10.25;;;23.30;35.90;;;;;;5046395;28;20045;-63
2023/01/26 12:09:43;;;;;;;18.13;10.48;;;23.40;36.00;;;;;;5042903;28;20151;-61
2023/01/26 12:12:39;;;;;;;22.98;11.80;;;23.40;35.90;;;;;;5046160;28;20045;-63
2023/01/26 12:15:16;;;;;;;21.77;10.90;;;23.40;35.70;;;;;;5042584;28;20605;-63
2023/01/26 12:17:58;;;;;;;23.45;11.40;;;23.40;35.50;;;;;;5043241;28;20132;-64
2023/01/26 12:20:56;;;;;;;25.08;11.55;;;23.40;35.50;;;;;;5041879;28;20110;-62
2023/01/26 12:23:38;;;;;;;22.38;10.95;;;23.40;35.40;;;;;;5041602;28;20420;-61
2023/01/26 12:26:19;;;;;;;22.05;11.43;;;23.40;35.30;;;;;;5045000;28;20053;-62
2023/01/26 12:28:59;;;;;;;23.13;10.73;;;23.40;35.10;;;;;;5045556;28;20052;-62
2023/01/26 12:31:52;;;;;;;19.95;10.73;;;23.50;35.20;;;;;;5047248;28;20513;-62
2023/01/26 12:34:28;;;;;;;26.95;10.45;;;23.50;35.10;;;;;;5046778;28;20049;-61
2023/01/26 12:37:32;;;;;;;19.35;9.80;;;23.60;35.30;;;;;;5044257;28;20048;-61
2023/01/26 12:40:26;;;;;;;16.45;9.45;;;23.60;35.10;;;;;;5044533;28;20493;-61
2023/01/26 12:43:18;;;;;;;17.70;9.65;;;23.60;35.00;;;;;;5043824;28;20079;-63
2023/01/26 12:45:49;;;;;;;20.13;9.38;;;23.60;34.90;;;;;;5045004;28;20084;-63
2023/01/26 12:48:26;;;;;;;16.55;8.82;;;23.70;34.90;;;;;;5042675;28;20505;-62
2023/01/26 12:51:01;;;;;;;16.65;9.60;;;23.70;35.00;;;;;;5043648;28;20401;-62
2023/01/26 12:53:47;;;;;;;17.17;9.25;;;23.70;35.20;;;;;;5046022;28;20111;-63
2023/01/26 12:56:24;;;;;;;21.52;9.73;;;23.70;35.20;;;;;;5043212;28;20071;-66
2023/01/26 12:58:54;;;;;;;22.08;9.05;;;23.70;35.10;;;;;;5045575;28;20059;-61
2023/01/26 13:01:25;;;;;;;26.40;10.70;;;23.70;35.10;;;;;;5040126;28;20554;-63
2023/01/26 13:03:57;;;;;;;16.58;8.40;;;23.70;35.20;;;;;;5043077;28;20067;-62
2023/01/26 13:06:26;;;;;;;19.42;8.85;;;23.70;35.40;;;;;;5046846;28;20048;-63
2023/01/26 13:09:20;;;;;;;16.65;8.63;;;23.70;35.60;;;;;;5047063;28;20064;-62
2023/01/26 13:11:50;;;;;;;19.23;10.02;;;23.70;35.60;;;;;;5042239;28;20128;-63
2023/01/26 13:14:50;;;;;;;22.17;10.00;;;23.70;35.60;;;;;;5043137;28;20078;-64
2023/01/26 13:17:37;;;;;;;;;;;23.80;35.70;;;;;;5040370;28;20528;-63
2023/01/26 13:20:34;;;;;;;18.45;8.93;;;23.80;35.50;;;;;;5041421;28;19982;-64
2023/01/26 13:23:01;;;;;;;16.90;9.23;;;23.80;35.20;;;;;;5043750;28;20045;-65
2023/01/26 13:25:32;;;;;;;18.65;9.18;;;23.80;35.20;;;;;;5043127;28;20079;-64
2023/01/26 13:28:01;;;;;;;16.35;9.45;;;23.80;35.10;;;;;;5039554;28;20049;-62
2023/01/26 13:30:42;;;;;;;14.55;8.63;;;23.80;35.10;;;;;;5045254;28;20084;-62
2023/01/26 13:33:23;;;;;;;18.10;9.27;;;23.80;35.30;;;;;;5039164;28;20060;-62
2023/01/26 13:35:54;;;;;;;15.23;8.00;;;23.80;35.30;;;;;;5044608;28;20049;-63
2023/01/26 13:38:34;;;;;;;15.20;8.90;;;23.90;35.40;;;;;;5044524;28;20765;-62
2023/01/26 13:41:06;;;;;;;13.07;8.82;;;23.80;35.40;;;;;;5043958;28;20037;-62
2023/01/26 13:43:41;;;;;;;15.25;8.15;;;23.90;35.40;;;;;;5042575;28;20056;-63
2023/01/26 13:46:16;;;;;;;16.08;8.10;;;23.90;35.20;;;;;;5042630;28;20132;-61
2023/01/26 13:48:50;;;;;;;12.75;8.55;;;23.90;35.10;;;;;;5045274;28;20045;-61
2023/01/26 13:51:26;;;;;;;12.80;8.27;;;23.80;34.90;;;;;;5044541;28;20053;-63
2023/01/26 13:54:09;;;;;;;13.25;8.43;;;23.80;34.90;;;;;;5048487;28;20048;-62
2023/01/26 13:56:40;;;;;;;13.68;8.40;;;23.80;34.80;;;;;;5044491;28;20049;-61
2023/01/26 13:59:13;;;;;;;12.25;8.00;;;23.80;34.70;;;;;;5042284;28;20059;-62
2023/01/26 14:01:48;;;;;;;12.60;7.35;;;23.80;34.70;;;;;;5047025;28;20041;-62